Time;durP1;ratioP1;P1;durP2;ratioP2;P2;SDS_P1;SDS_P2;PMS_P1;PMS_P2;Temp;Humidity;BMP_temperature;BMP_pressure;BME280_temperature;BME280_humidity;BME280_pressure;Samples;Min_cycle;Max_cycle;Signal;HPM_P1;HPM_P2
2023/12/14 00:02:18;;;;;;;4.05;3.60;;;;;;;;;;5062927;28;20060;-72
2023/12/14 00:04:44;;;;;;;5.60;3.30;;;;;;;;;;5058064;28;20047;-71
2023/12/14 00:07:19;;;;;;;5.90;2.80;;;;;;;;;;5058717;28;20428;-72
2023/12/14 00:09:45;;;;;;;;;;;;;;;;;;5053815;28;20380;-72
2023/12/14 00:12:12;;;;;;;4.57;2.97;;;;;;;;;;5060359;28;19972;-72
2023/12/14 00:14:41;;;;;;;6.60;3.10;;;;;;;;;;5061632;28;20153;-72
2023/12/14 00:17:10;;;;;;;11.05;3.47;;;;;;;;;;5054164;28;20404;-72
2023/12/14 00:19:36;;;;;;;4.07;3.08;;;;;;;;;;5059322;28;20107;-72
2023/12/14 00:22:02;;;;;;;5.95;3.20;;;;;;;;;;5061277;28;20583;-72
2023/12/14 00:24:47;;;;;;;3.67;3.15;;;;;;;;;;5061212;28;20033;-72
2023/12/14 00:27:13;;;;;;;4.75;2.88;;;;;;;;;;5061538;28;20078;-72
2023/12/14 00:29:39;;;;;;;5.47;3.05;;;;;;;;;;5057439;28;20056;-72
2023/12/14 00:32:06;;;;;;;4.57;2.92;;;;;;;;;;5062422;28;20020;-72
2023/12/14 00:34:32;;;;;;;9.25;2.78;;;;;;;;;;5057194;28;20112;-74
2023/12/14 00:36:58;;;;;;;2.85;2.63;;;;;;;;;;5056816;28;20025;-72
2023/12/14 00:39:24;;;;;;;4.65;2.95;;;;;;;;;;5059429;28;20025;-74
2023/12/14 00:41:50;;;;;;;7.05;3.35;;;;;;;;;;5062493;28;20043;-72
2023/12/14 00:44:16;;;;;;;5.45;3.03;;;;;;;;;;5063933;28;20028;-72
2023/12/14 00:46:43;;;;;;;3.25;2.63;;;;;;;;;;5061937;28;20036;-73
2023/12/14 00:49:09;;;;;;;6.15;3.20;;;;;;;;;;5058239;28;20335;-72
2023/12/14 00:51:35;;;;;;;4.60;2.80;;;;;;;;;;5064899;28;20047;-72
2023/12/14 00:54:01;;;;;;;3.88;3.17;;;;;;;;;;5064420;28;20029;-73
2023/12/14 00:56:27;;;;;;;4.97;2.85;;;;;;;;;;5062228;28;20060;-73
2023/12/14 00:58:53;;;;;;;4.80;2.70;;;;;;;;;;5064472;28;20115;-72
2023/12/14 01:01:19;;;;;;;4.55;3.15;;;;;;;;;;5061192;28;20029;-72
2023/12/14 01:03:45;;;;;;;3.25;2.75;;;;;;;;;;5062994;28;20035;-72
2023/12/14 01:06:11;;;;;;;5.30;2.72;;;;;;;;;;5065403;28;20055;-71
2023/12/14 01:08:38;;;;;;;3.28;2.30;;;;;;;;;;5064729;28;20021;-73
2023/12/14 01:11:04;;;;;;;4.93;2.50;;;;;;;;;;5073215;28;20336;-72
2023/12/14 01:13:30;;;;;;;8.35;3.58;;;;;;;;;;5063010;28;20060;-72
2023/12/14 01:15:56;;;;;;;3.58;2.78;;;;;;;;;;5058835;28;20039;-73
2023/12/14 01:18:22;;;;;;;4.57;2.72;;;;;;;;;;5063606;28;20112;-71
2023/12/14 01:20:48;;;;;;;7.00;2.63;;;;;;;;;;5059579;28;20489;-72
2023/12/14 01:23:14;;;;;;;3.72;2.63;;;;;;;;;;5066480;28;20062;-73
2023/12/14 01:25:41;;;;;;;6.25;2.90;;;;;;;;;;5059596;28;20025;-72
2023/12/14 01:28:08;;;;;;;3.13;2.45;;;;;;;;;;5066375;28;20043;-73
2023/12/14 01:30:36;;;;;;;3.97;3.03;;;;;;;;;;5063360;28;20020;-72
2023/12/14 01:33:03;;;;;;;2.70;2.33;;;;;;;;;;5065505;28;20063;-72
2023/12/14 01:35:29;;;;;;;4.88;3.15;;;;;;;;;;5065164;28;20032;-73
2023/12/14 01:37:56;;;;;;;5.82;2.47;;;;;;;;;;5065369;28;20036;-73
2023/12/14 01:40:22;;;;;;;5.00;2.70;;;;;;;;;;5061504;28;20029;-73
2023/12/14 01:42:48;;;;;;;3.17;2.38;;;;;;;;;;5056584;28;20029;-72
2023/12/14 01:45:16;;;;;;;4.82;3.00;;;;;;;;;;5055654;28;20401;-73
2023/12/14 01:47:43;;;;;;;4.45;3.05;;;;;;;;;;5055653;28;20060;-72
2023/12/14 01:50:09;;;;;;;3.33;2.60;;;;;;;;;;5064294;28;20438;-73
2023/12/14 01:52:35;;;;;;;3.65;2.67;;;;;;;;;;5059991;28;20037;-73
2023/12/14 01:55:04;;;;;;;3.83;2.97;;;;;;;;;;5066319;28;20092;-72
2023/12/14 01:57:30;;;;;;;4.60;2.95;;;;;;;;;;5064026;28;20066;-73
2023/12/14 02:00:03;;;;;;;3.92;2.70;;;;;;;;;;5060803;28;20123;-72
2023/12/14 02:02:29;;;;;;;3.97;2.97;;;;;;;;;;5057213;28;20447;-73
2023/12/14 02:04:55;;;;;;;6.63;2.95;;;;;;;;;;5060964;28;20090;-73
2023/12/14 02:07:22;;;;;;;5.75;3.15;;;;;;;;;;5066473;28;20341;-73
2023/12/14 02:09:50;;;;;;;4.03;2.75;;;;;;;;;;5060691;28;20028;-72
2023/12/14 02:12:16;;;;;;;4.40;2.90;;;;;;;;;;5065610;28;20016;-72
2023/12/14 02:14:42;;;;;;;2.53;2.33;;;;;;;;;;5067989;28;20054;-72
2023/12/14 02:17:08;;;;;;;3.67;2.75;;;;;;;;;;5055998;28;20075;-72
2023/12/14 02:19:35;;;;;;;4.00;2.33;;;;;;;;;;5060139;28;20159;-73
2023/12/14 02:22:01;;;;;;;4.63;2.78;;;;;;;;;;5057227;28;20488;-73
2023/12/14 02:24:28;;;;;;;3.17;2.83;;;;;;;;;;5064008;28;20036;-72
2023/12/14 02:26:54;;;;;;;3.22;2.50;;;;;;;;;;5069121;28;20079;-73
2023/12/14 02:29:25;;;;;;;3.30;2.53;;;;;;;;;;5066771;28;20115;-72
2023/12/14 02:31:54;;;;;;;6.05;2.85;;;;;;;;;;5054691;28;20398;-73
2023/12/14 02:34:20;;;;;;;4.80;2.78;;;;;;;;;;5074240;28;20495;-72
2023/12/14 02:36:46;;;;;;;4.82;2.80;;;;;;;;;;5065378;28;20024;-72
2023/12/14 02:39:13;;;;;;;4.18;2.65;;;;;;;;;;5058684;28;20021;-72
2023/12/14 02:41:39;;;;;;;6.18;2.65;;;;;;;;;;5066616;28;20486;-73
2023/12/14 02:44:05;;;;;;;3.92;2.88;;;;;;;;;;5059427;28;20487;-72
2023/12/14 02:46:31;;;;;;;2.38;2.15;;;;;;;;;;5059491;28;20511;-72
2023/12/14 02:48:57;;;;;;;7.55;3.47;;;;;;;;;;5072866;28;20419;-71
2023/12/14 02:51:23;;;;;;;3.67;3.00;;;;;;;;;;5055611;28;20023;-72
2023/12/14 02:53:50;;;;;;;3.55;2.60;;;;;;;;;;5055791;28;20083;-72
2023/12/14 02:56:16;;;;;;;4.55;2.78;;;;;;;;;;5066565;28;20499;-72
2023/12/14 02:58:42;;;;;;;3.17;2.53;;;;;;;;;;5056892;28;20024;-72
2023/12/14 03:01:08;;;;;;;4.25;2.65;;;;;;;;;;5056078;28;20119;-72
2023/12/14 03:03:34;;;;;;;3.83;2.72;;;;;;;;;;5063748;28;20041;-73
2023/12/14 03:06:00;;;;;;;8.02;3.28;;;;;;;;;;5053755;28;20035;-73
2023/12/14 03:08:29;;;;;;;4.70;2.75;;;;;;;;;;5053047;28;20131;-73
2023/12/14 03:10:57;;;;;;;3.17;2.88;;;;;;;;;;5061701;28;20079;-72
2023/12/14 03:13:23;;;;;;;5.57;3.33;;;;;;;;;;5053039;28;20111;-72
2023/12/14 03:15:49;;;;;;;4.18;3.05;;;;;;;;;;5061828;28;20069;-72
2023/12/14 03:18:15;;;;;;;7.10;2.80;;;;;;;;;;5065448;28;20025;-69
2023/12/14 03:20:42;;;;;;;5.20;2.70;;;;;;;;;;5054997;28;20484;-73
2023/12/14 03:23:08;;;;;;;3.72;2.83;;;;;;;;;;5057144;28;20393;-72
2023/12/14 03:25:34;;;;;;;6.30;3.17;;;;;;;;;;5080699;28;20093;-73
2023/12/14 03:28:00;;;;;;;8.02;3.88;;;;;;;;;;5058917;28;20054;-73
2023/12/14 03:30:26;;;;;;;5.82;2.97;;;;;;;;;;5063793;28;20021;-73
2023/12/14 03:32:53;;;;;;;4.43;2.60;;;;;;;;;;5059571;28;20032;-73
2023/12/14 03:35:19;;;;;;;4.32;2.78;;;;;;;;;;5058117;28;20032;-73
2023/12/14 03:37:45;;;;;;;3.50;2.63;;;;;;;;;;5061480;28;20029;-73
2023/12/14 03:40:11;;;;;;;3.80;2.90;;;;;;;;;;5061083;28;20504;-73
2023/12/14 03:42:37;;;;;;;3.78;3.13;;;;;;;;;;5063038;28;20043;-73
2023/12/14 03:45:04;;;;;;;5.55;3.08;;;;;;;;;;5063651;28;20036;-73
2023/12/14 03:47:33;;;;;;;6.20;3.10;;;;;;;;;;5054979;28;20036;-73
2023/12/14 03:49:59;;;;;;;4.93;2.70;;;;;;;;;;5051037;28;20028;-73
2023/12/14 03:52:27;;;;;;;5.57;2.40;;;;;;;;;;5063745;28;20020;-73
2023/12/14 03:54:53;;;;;;;2.60;2.40;;;;;;;;;;5055735;28;20033;-73
2023/12/14 03:57:20;;;;;;;3.50;2.95;;;;;;;;;;5062277;28;20032;-73
2023/12/14 03:59:46;;;;;;;5.18;3.15;;;;;;;;;;5052209;28;20039;-72
2023/12/14 04:02:12;;;;;;;3.13;2.72;;;;;;;;;;5064504;28;20468;-73
2023/12/14 04:04:38;;;;;;;4.93;2.72;;;;;;;;;;5057491;28;20025;-72
2023/12/14 04:07:05;;;;;;;8.85;3.47;;;;;;;;;;5050802;28;20033;-73
2023/12/14 04:09:31;;;;;;;4.05;2.92;;;;;;;;;;5063501;28;20028;-72
2023/12/14 04:11:57;;;;;;;3.95;2.72;;;;;;;;;;5064763;28;20114;-72
2023/12/14 04:14:23;;;;;;;7.25;2.97;;;;;;;;;;5062144;28;20510;-73
2023/12/14 04:16:49;;;;;;;2.88;2.58;;;;;;;;;;5062016;28;20311;-73
2023/12/14 04:19:16;;;;;;;6.15;2.88;;;;;;;;;;5064356;28;20029;-73
2023/12/14 04:21:42;;;;;;;3.42;2.90;;;;;;;;;;5068932;28;20087;-72
2023/12/14 04:24:09;;;;;;;4.35;2.75;;;;;;;;;;5059383;28;20109;-73
2023/12/14 04:26:35;;;;;;;4.22;3.17;;;;;;;;;;5060545;28;20032;-72
2023/12/14 04:29:01;;;;;;;5.00;3.20;;;;;;;;;;5058696;28;20032;-73
2023/12/14 04:31:27;;;;;;;4.07;3.30;;;;;;;;;;5061573;28;20396;-72
2023/12/14 04:33:54;;;;;;;4.72;2.67;;;;;;;;;;5059511;28;20036;-73
2023/12/14 04:36:20;;;;;;;8.18;2.70;;;;;;;;;;5060611;28;20039;-72
2023/12/14 04:38:47;;;;;;;3.45;2.90;;;;;;;;;;5059484;28;20149;-72
2023/12/14 04:41:13;;;;;;;6.15;2.92;;;;;;;;;;5052985;28;20511;-72
2023/12/14 04:43:39;;;;;;;4.25;3.15;;;;;;;;;;5054499;28;20131;-72
2023/12/14 04:46:06;;;;;;;3.95;3.17;;;;;;;;;;5048051;28;20037;-72
2023/12/14 04:48:32;;;;;;;4.88;3.10;;;;;;;;;;5060238;28;20296;-73
2023/12/14 04:50:58;;;;;;;4.32;3.08;;;;;;;;;;5056910;28;20024;-73
2023/12/14 04:53:24;;;;;;;4.28;2.95;;;;;;;;;;5054675;28;20152;-73
2023/12/14 04:55:51;;;;;;;4.13;2.72;;;;;;;;;;5052353;28;20429;-72
2023/12/14 04:58:17;;;;;;;7.32;2.70;;;;;;;;;;5057368;28;20032;-73
2023/12/14 05:00:43;;;;;;;4.95;2.80;;;;;;;;;;5051997;28;20025;-72
2023/12/14 05:03:10;;;;;;;4.20;3.13;;;;;;;;;;5060531;28;20036;-72
2023/12/14 05:05:36;;;;;;;4.03;2.88;;;;;;;;;;5057355;28;20546;-73
2023/12/14 05:08:02;;;;;;;3.92;2.75;;;;;;;;;;5053262;28;20029;-74
2023/12/14 05:10:28;;;;;;;4.60;3.42;;;;;;;;;;5053796;28;20127;-68
2023/12/14 05:12:54;;;;;;;3.53;2.97;;;;;;;;;;5058192;28;20108;-66
2023/12/14 05:15:21;;;;;;;4.47;2.53;;;;;;;;;;5058423;28;20032;-68
2023/12/14 05:17:47;;;;;;;4.03;2.17;;;;;;;;;;5046963;28;20036;-68
2023/12/14 05:20:13;;;;;;;8.77;2.67;;;;;;;;;;5054175;28;20025;-68
2023/12/14 05:22:39;;;;;;;5.75;3.22;;;;;;;;;;5059254;28;20039;-69
2023/12/14 05:25:05;;;;;;;5.57;2.60;;;;;;;;;;5069492;28;20279;-70
2023/12/14 05:27:31;;;;;;;8.43;3.05;;;;;;;;;;5061269;28;20013;-69
2023/12/14 05:29:58;;;;;;;4.30;2.20;;;;;;;;;;5057803;28;20094;-69
2023/12/14 05:32:26;;;;;;;2.92;2.15;;;;;;;;;;5062199;28;20056;-69
2023/12/14 05:34:52;;;;;;;5.20;2.75;;;;;;;;;;5059201;28;20040;-69
2023/12/14 05:37:18;;;;;;;5.65;2.28;;;;;;;;;;5061976;28;20032;-68
2023/12/14 05:39:45;;;;;;;7.82;2.80;;;;;;;;;;5056450;28;20036;-69
2023/12/14 05:42:11;;;;;;;4.72;2.15;;;;;;;;;;5055312;28;20017;-70
2023/12/14 05:44:37;;;;;;;6.90;2.15;;;;;;;;;;5059384;28;20064;-69
2023/12/14 05:47:04;;;;;;;9.93;2.78;;;;;;;;;;5063194;28;20040;-69
2023/12/14 05:49:30;;;;;;;9.30;2.50;;;;;;;;;;5059841;28;20029;-69
2023/12/14 05:51:59;;;;;;;6.47;2.78;;;;;;;;;;5060394;28;20466;-69
2023/12/14 05:54:25;;;;;;;8.15;2.90;;;;;;;;;;5062481;28;20029;-69
2023/12/14 05:56:51;;;;;;;4.40;2.20;;;;;;;;;;5062613;28;20437;-68
2023/12/14 05:59:17;;;;;;;8.70;2.67;;;;;;;;;;5058463;28;20611;-68
2023/12/14 06:01:43;;;;;;;7.10;2.22;;;;;;;;;;5060170;28;20143;-69
2023/12/14 06:04:10;;;;;;;5.38;2.65;;;;;;;;;;5062128;28;20041;-72
2023/12/14 06:06:39;;;;;;;8.80;2.60;;;;;;;;;;5058903;28;20384;-72
2023/12/14 06:09:07;;;;;;;9.18;2.80;;;;;;;;;;5059818;28;20761;-72
2023/12/14 06:11:33;;;;;;;11.95;3.05;;;;;;;;;;5058516;28;20013;-72
2023/12/14 06:14:00;;;;;;;6.95;2.70;;;;;;;;;;5060986;28;21315;-72
2023/12/14 06:16:26;;;;;;;7.53;3.10;;;;;;;;;;5057720;28;20519;-72
2023/12/14 06:18:52;;;;;;;6.90;2.15;;;;;;;;;;5053443;28;20037;-72
2023/12/14 06:21:18;;;;;;;17.08;3.03;;;;;;;;;;5052052;28;20124;-73
2023/12/14 06:23:44;;;;;;;7.57;2.15;;;;;;;;;;5059497;28;20032;-72
2023/12/14 06:26:10;;;;;;;15.15;3.55;;;;;;;;;;5063238;28;20107;-72
2023/12/14 06:28:37;;;;;;;4.13;2.75;;;;;;;;;;5061468;28;20127;-72
2023/12/14 06:31:03;;;;;;;20.33;5.22;;;;;;;;;;5066152;28;20675;-73
2023/12/14 06:33:29;;;;;;;15.23;4.28;;;;;;;;;;5072444;28;20032;-72
2023/12/14 06:35:55;;;;;;;13.15;3.00;;;;;;;;;;5055286;28;20032;-72
2023/12/14 06:38:21;;;;;;;8.88;2.47;;;;;;;;;;5062966;28;20563;-72
2023/12/14 06:40:48;;;;;;;12.38;3.17;;;;;;;;;;5060419;28;20040;-72
2023/12/14 06:43:14;;;;;;;10.18;2.70;;;;;;;;;;5064671;28;20341;-72
2023/12/14 06:45:41;;;;;;;10.50;3.22;;;;;;;;;;5061779;28;20049;-72
2023/12/14 06:48:07;;;;;;;12.25;2.72;;;;;;;;;;5066778;28;20035;-73
2023/12/14 06:50:33;;;;;;;11.27;2.95;;;;;;;;;;5064929;28;20120;-73
2023/12/14 06:52:59;;;;;;;7.90;2.50;;;;;;;;;;5061900;28;20524;-73
2023/12/14 06:55:26;;;;;;;17.67;3.17;;;;;;;;;;5056535;28;20978;-72
2023/12/14 06:57:52;;;;;;;15.23;2.97;;;;;;;;;;5056010;28;20425;-72
2023/12/14 07:00:18;;;;;;;13.35;3.10;;;;;;;;;;5066699;28;20029;-72
2023/12/14 07:02:44;;;;;;;6.00;2.42;;;;;;;;;;5061426;28;20058;-72
2023/12/14 07:05:11;;;;;;;13.88;4.47;;;;;;;;;;5058355;28;20109;-72
2023/12/14 07:07:37;;;;;;;7.35;2.60;;;;;;;;;;5059793;28;20029;-72
2023/12/14 07:10:03;;;;;;;13.00;3.30;;;;;;;;;;5062945;28;20460;-72
2023/12/14 07:12:29;;;;;;;16.25;3.05;;;;;;;;;;5059249;28;20040;-72
2023/12/14 07:14:55;;;;;;;16.02;3.30;;;;;;;;;;5061163;28;20491;-73
2023/12/14 07:17:21;;;;;;;17.52;3.15;;;;;;;;;;5070598;28;20027;-72
2023/12/14 07:19:48;;;;;;;12.18;3.28;;;;;;;;;;5060260;28;20044;-73
2023/12/14 07:22:14;;;;;;;17.92;3.30;;;;;;;;;;5064278;28;20101;-72
2023/12/14 07:24:40;;;;;;;8.50;3.20;;;;;;;;;;5055117;28;20506;-73
2023/12/14 07:27:06;;;;;;;25.13;4.10;;;;;;;;;;5063237;28;20099;-72
2023/12/14 07:29:32;;;;;;;16.25;3.65;;;;;;;;;;5059514;28;20025;-72
2023/12/14 07:31:58;;;;;;;8.20;3.67;;;;;;;;;;5052838;28;20040;-73
2023/12/14 07:34:27;;;;;;;15.25;3.22;;;;;;;;;;5063146;28;20044;-72
2023/12/14 07:36:54;;;;;;;13.07;3.45;;;;;;;;;;5064931;28;20135;-73
2023/12/14 07:39:20;;;;;;;8.50;3.45;;;;;;;;;;5077992;28;20619;-73
2023/12/14 07:41:49;;;;;;;17.92;3.10;;;;;;;;;;5067790;28;20483;-73
2023/12/14 07:44:15;;;;;;;11.55;2.75;;;;;;;;;;5062498;28;20115;-72
2023/12/14 07:46:43;;;;;;;17.48;3.85;;;;;;;;;;5058753;28;20128;-70
2023/12/14 07:49:09;;;;;;;14.48;3.50;;;;;;;;;;5056885;28;20028;-70
2023/12/14 07:51:35;;;;;;;8.30;3.72;;;;;;;;;;5055611;28;20487;-69
2023/12/14 07:54:03;;;;;;;19.45;3.70;;;;;;;;;;5060447;28;20029;-70
2023/12/14 07:56:30;;;;;;;16.08;4.32;;;;;;;;;;5071018;28;20036;-70
2023/12/14 07:58:56;;;;;;;13.18;3.40;;;;;;;;;;5069455;28;20029;-70
2023/12/14 08:01:23;;;;;;;27.20;3.92;;;;;;;;;;5060816;28;20029;-71
2023/12/14 08:03:49;;;;;;;13.73;3.53;;;;;;;;;;5059166;28;20049;-71
2023/12/14 08:06:15;;;;;;;16.67;3.95;;;;;;;;;;5074052;28;20066;-71
2023/12/14 08:08:42;;;;;;;14.68;3.22;;;;;;;;;;5067025;28;20199;-71
2023/12/14 08:11:08;;;;;;;17.70;4.55;;;;;;;;;;5079115;28;20028;-68
2023/12/14 08:13:34;;;;;;;15.85;3.58;;;;;;;;;;5062859;28;20516;-71
2023/12/14 08:16:01;;;;;;;14.07;4.00;;;;;;;;;;5063344;28;20058;-72
2023/12/14 08:18:27;;;;;;;13.30;3.63;;;;;;;;;;5055349;28;20121;-72
2023/12/14 08:20:55;;;;;;;8.00;3.17;;;;;;;;;;5061135;28;20498;-70
2023/12/14 08:23:21;;;;;;;20.92;3.97;;;;;;;;;;5059959;28;20044;-70
2023/12/14 08:25:47;;;;;;;13.88;5.00;;;;;;;;;;5059022;28;20044;-71
2023/12/14 08:28:13;;;;;;;15.20;4.68;;;;;;;;;;5058419;28;20031;-69
2023/12/14 08:30:40;;;;;;;15.10;3.97;;;;;;;;;;5059768;28;20070;-69
2023/12/14 08:33:06;;;;;;;12.82;4.03;;;;;;;;;;5062555;28;20020;-70
2023/12/14 08:35:32;;;;;;;10.07;3.83;;;;;;;;;;5062590;28;20027;-70
2023/12/14 08:37:59;;;;;;;10.20;3.40;;;;;;;;;;5078378;28;20428;-71
2023/12/14 08:40:25;;;;;;;19.85;3.70;;;;;;;;;;5060784;28;20081;-73
2023/12/14 08:42:51;;;;;;;15.88;3.65;;;;;;;;;;5066205;28;20025;-71
2023/12/14 08:45:17;;;;;;;10.40;3.72;;;;;;;;;;5065905;28;20072;-72
2023/12/14 08:47:43;;;;;;;16.77;3.63;;;;;;;;;;5058826;28;20033;-70
2023/12/14 08:50:09;;;;;;;13.93;4.20;;;;;;;;;;5052947;28;20043;-69
2023/12/14 08:52:36;;;;;;;22.92;4.82;;;;;;;;;;5073301;28;20024;-70
2023/12/14 08:55:02;;;;;;;18.42;4.10;;;;;;;;;;5062936;28;20055;-70
2023/12/14 08:57:28;;;;;;;12.15;3.83;;;;;;;;;;5050898;28;20195;-70
2023/12/14 08:59:54;;;;;;;9.40;3.55;;;;;;;;;;5055070;28;20123;-70
2023/12/14 09:02:20;;;;;;;19.35;3.58;;;;;;;;;;5062605;28;20058;-70
2023/12/14 09:04:46;;;;;;;7.70;2.88;;;;;;;;;;5057211;28;20492;-70
2023/12/14 09:07:13;;;;;;;11.50;3.30;;;;;;;;;;5062109;28;20027;-70
2023/12/14 09:09:39;;;;;;;16.38;3.47;;;;;;;;;;5063008;28;20499;-70
2023/12/14 09:12:05;;;;;;;13.73;4.18;;;;;;;;;;5062495;28;20038;-70
2023/12/14 09:14:32;;;;;;;13.35;5.35;;;;;;;;;;5065346;28;20067;-70
2023/12/14 09:16:58;;;;;;;12.60;3.05;;;;;;;;;;5061994;28;20032;-71
2023/12/14 09:19:24;;;;;;;14.13;3.25;;;;;;;;;;5052725;28;20229;-70
2023/12/14 09:21:50;;;;;;;8.07;3.13;;;;;;;;;;5053148;28;20047;-71
2023/12/14 09:24:17;;;;;;;11.68;4.15;;;;;;;;;;5056980;28;20703;-70
2023/12/14 09:26:43;;;;;;;8.73;3.35;;;;;;;;;;5062063;28;21145;-69
2023/12/14 09:29:12;;;;;;;12.57;3.53;;;;;;;;;;5060535;28;20483;-72
2023/12/14 09:31:41;;;;;;;22.73;3.80;;;;;;;;;;5057312;28;20554;-70
2023/12/14 09:34:07;;;;;;;7.97;3.05;;;;;;;;;;5064510;28;20021;-70
2023/12/14 09:36:34;;;;;;;20.65;3.47;;;;;;;;;;5066924;28;20241;-71
2023/12/14 09:39:00;;;;;;;9.93;3.65;;;;;;;;;;5063259;28;20528;-70
2023/12/14 09:41:26;;;;;;;13.10;4.35;;;;;;;;;;5064392;28;20451;-71
2023/12/14 09:43:53;;;;;;;5.57;2.95;;;;;;;;;;5056512;28;20091;-69
2023/12/14 09:46:22;;;;;;;15.50;4.30;;;;;;;;;;5055178;28;20047;-71
2023/12/14 09:48:49;;;;;;;18.90;4.00;;;;;;;;;;5054432;28;20048;-70
2023/12/14 09:51:16;;;;;;;8.73;3.53;;;;;;;;;;5061696;28;20290;-69
2023/12/14 09:53:42;;;;;;;10.82;3.22;;;;;;;;;;5075846;28;20017;-70
2023/12/14 09:56:09;;;;;;;12.20;3.15;;;;;;;;;;5058257;28;20043;-70
2023/12/14 09:58:35;;;;;;;11.70;2.92;;;;;;;;;;5062303;28;20032;-69
2023/12/14 10:01:04;;;;;;;13.27;3.72;;;;;;;;;;5075911;28;20527;-69
2023/12/14 10:03:32;;;;;;;13.48;4.10;;;;;;;;;;5072164;28;20159;-68
2023/12/14 10:05:59;;;;;;;13.50;5.43;;;;;;;;;;5052469;28;20498;-66
2023/12/14 10:08:28;;;;;;;16.23;3.75;;;;;;;;;;5061725;28;20017;-67
2023/12/14 10:10:55;;;;;;;19.67;4.10;;;;;;;;;;5062463;28;20032;-70
2023/12/14 10:13:23;;;;;;;9.60;4.10;;;;;;;;;;5060370;28;21286;-69
2023/12/14 10:15:49;;;;;;;20.77;4.28;;;;;;;;;;5058460;28;20384;-73
2023/12/14 10:18:23;;;;;;;18.05;3.90;;;;;;;;;;5062418;28;20039;-72
2023/12/14 10:20:49;;;;;;;18.95;3.55;;;;;;;;;;5059364;28;20294;-70
2023/12/14 10:23:16;;;;;;;14.52;3.83;;;;;;;;;;5061910;28;20506;-71
2023/12/14 10:25:43;;;;;;;16.48;3.75;;;;;;;;;;5065863;28;20063;-70
2023/12/14 10:28:13;;;;;;;14.23;3.75;;;;;;;;;;5043977;28;20027;-70
2023/12/14 10:30:43;;;;;;;10.32;3.42;;;;;;;;;;5078924;28;20067;-70
2023/12/14 10:33:10;;;;;;;15.43;3.17;;;;;;;;;;5066080;28;20121;-70
2023/12/14 10:35:36;;;;;;;11.88;3.40;;;;;;;;;;5068136;28;20063;-73
2023/12/14 10:38:05;;;;;;;19.10;4.28;;;;;;;;;;5059808;28;20036;-73
2023/12/14 10:40:40;;;;;;;9.20;3.97;;;;;;;;;;5052331;28;20975;-71
2023/12/14 10:43:06;;;;;;;12.18;3.60;;;;;;;;;;5074675;28;20029;-70
2023/12/14 10:45:33;;;;;;;16.10;4.72;;;;;;;;;;5071575;28;20425;-70
2023/12/14 10:48:00;;;;;;;17.88;4.50;;;;;;;;;;5065233;28;20267;-72
2023/12/14 10:50:30;;;;;;;7.75;3.60;;;;;;;;;;5079695;28;20021;-73
2023/12/14 10:52:56;;;;;;;13.18;3.80;;;;;;;;;;5056402;28;20086;-70
2023/12/14 10:55:34;;;;;;;14.13;3.42;;;;;;;;;;5065042;28;20499;-71
2023/12/14 10:58:01;;;;;;;10.50;3.65;;;;;;;;;;5063274;28;20033;-71
2023/12/14 11:00:27;;;;;;;10.10;3.00;;;;;;;;;;5077783;28;20472;-71
2023/12/14 11:02:53;;;;;;;10.88;3.55;;;;;;;;;;5060137;28;20455;-70
2023/12/14 11:05:26;;;;;;;11.20;3.47;;;;;;;;;;5068016;28;20032;-71
2023/12/14 11:07:57;;;;;;;15.15;4.03;;;;;;;;;;5067834;28;20038;-70
2023/12/14 11:10:23;;;;;;;14.43;3.75;;;;;;;;;;5077959;28;20032;-70
2023/12/14 11:12:53;;;;;;;9.82;3.10;;;;;;;;;;5071505;28;20518;-70
2023/12/14 11:15:20;;;;;;;15.25;3.45;;;;;;;;;;5060466;28;20035;-74
2023/12/14 11:18:07;;;;;;;10.30;3.28;;;;;;;;;;5066207;28;20025;-76
2023/12/14 11:20:50;;;;;;;12.00;3.50;;;;;;;;;;5066851;28;20446;-77
2023/12/14 11:23:29;;;;;;;8.55;3.03;;;;;;;;;;5069034;28;20468;-75
2023/12/14 11:25:57;;;;;;;11.80;3.17;;;;;;;;;;5066545;28;20027;-73
2023/12/14 11:28:23;;;;;;;14.48;3.67;;;;;;;;;;5063580;28;20037;-73
2023/12/14 11:30:49;;;;;;;8.30;3.22;;;;;;;;;;5068070;28;20052;-75
2023/12/14 11:33:15;;;;;;;11.32;3.45;;;;;;;;;;5070840;28;20027;-75
2023/12/14 11:35:41;;;;;;;11.55;4.25;;;;;;;;;;5066645;28;20028;-73
2023/12/14 11:38:12;;;;;;;20.15;4.43;;;;;;;;;;5067113;28;20043;-72
2023/12/14 11:40:39;;;;;;;10.73;3.35;;;;;;;;;;5074277;28;20021;-71
2023/12/14 11:43:09;;;;;;;10.70;4.38;;;;;;;;;;5070320;28;20088;-75
2023/12/14 11:45:36;;;;;;;18.02;4.03;;;;;;;;;;5070999;28;20044;-74
2023/12/14 11:48:10;;;;;;;8.23;3.47;;;;;;;;;;5064737;28;20427;-74
2023/12/14 11:50:37;;;;;;;13.65;3.75;;;;;;;;;;5070039;28;20457;-74
2023/12/14 11:53:03;;;;;;;8.75;3.50;;;;;;;;;;5071983;28;20081;-76
2023/12/14 11:55:34;;;;;;;8.40;2.75;;;;;;;;;;5066644;28;20029;-72
2023/12/14 11:58:01;;;;;;;7.78;3.35;;;;;;;;;;5063297;28;20090;-79
2023/12/14 12:00:31;;;;;;;10.35;3.20;;;;;;;;;;5064709;28;20028;-78
2023/12/14 12:03:16;;;;;;;12.50;4.30;;;;;;;;;;5065349;28;20029;-74
2023/12/14 12:05:45;;;;;;;10.23;3.42;;;;;;;;;;5076724;28;20028;-72
2023/12/14 12:08:11;;;;;;;9.43;3.90;;;;;;;;;;5059247;28;20036;-72
2023/12/14 12:10:38;;;;;;;10.65;3.83;;;;;;;;;;5066028;28;20093;-71
2023/12/14 12:13:08;;;;;;;12.77;4.32;;;;;;;;;;5062301;28;20029;-73
2023/12/14 12:15:36;;;;;;;13.85;3.58;;;;;;;;;;5075201;28;20032;-71
2023/12/14 12:18:16;;;;;;;7.72;3.28;;;;;;;;;;5055348;28;20051;-72
2023/12/14 12:20:43;;;;;;;9.88;3.10;;;;;;;;;;5056278;28;20108;-70
2023/12/14 12:23:09;;;;;;;10.90;3.42;;;;;;;;;;5064061;28;20037;-72
2023/12/14 12:25:36;;;;;;;12.02;3.90;;;;;;;;;;5064160;28;20078;-74
2023/12/14 12:28:05;;;;;;;16.95;3.85;;;;;;;;;;5067599;28;20562;-76
2023/12/14 12:30:32;;;;;;;11.88;5.55;;;;;;;;;;5064557;28;20024;-73
2023/12/14 12:33:07;;;;;;;12.52;3.65;;;;;;;;;;5066718;28;20096;-73
2023/12/14 12:35:35;;;;;;;11.88;4.03;;;;;;;;;;5065693;28;20025;-76
2023/12/14 12:38:01;;;;;;;8.25;3.80;;;;;;;;;;5072341;28;20025;-75
2023/12/14 12:40:29;;;;;;;14.27;4.00;;;;;;;;;;5073600;28;20020;-75
2023/12/14 12:42:59;;;;;;;14.30;3.85;;;;;;;;;;5091070;28;20024;-75
2023/12/14 12:45:28;;;;;;;12.15;4.13;;;;;;;;;;5073579;28;20083;-77
2023/12/14 12:47:55;;;;;;;20.15;4.07;;;;;;;;;;5070562;28;20025;-74
2023/12/14 12:50:21;;;;;;;16.13;4.40;;;;;;;;;;5082844;28;20028;-75
2023/12/14 12:52:48;;;;;;;16.30;3.67;;;;;;;;;;5069193;28;20047;-76
2023/12/14 12:55:15;;;;;;;11.88;3.97;;;;;;;;;;5072160;28;20026;-76
2023/12/14 12:57:42;;;;;;;19.35;3.80;;;;;;;;;;5069510;28;20403;-76
2023/12/14 13:00:11;;;;;;;21.05;4.53;;;;;;;;;;5061271;28;20028;-73
2023/12/14 13:02:41;;;;;;;10.82;3.42;;;;;;;;;;5053385;28;20028;-73
2023/12/14 13:05:08;;;;;;;15.40;4.40;;;;;;;;;;5063495;28;20040;-73
2023/12/14 13:07:35;;;;;;;14.18;3.47;;;;;;;;;;5062548;28;20040;-73
2023/12/14 13:10:03;;;;;;;16.17;3.20;;;;;;;;;;5069788;28;20043;-72
2023/12/14 13:12:29;;;;;;;17.88;4.65;;;;;;;;;;5082824;28;20111;-73
2023/12/14 13:14:55;;;;;;;12.30;4.03;;;;;;;;;;5062540;28;20108;-73
2023/12/14 13:17:23;;;;;;;14.93;4.82;;;;;;;;;;5062703;28;20590;-73
2023/12/14 13:19:49;;;;;;;16.70;3.33;;;;;;;;;;5081610;28;20507;-74
2023/12/14 13:22:16;;;;;;;7.85;3.70;;;;;;;;;;5065557;28;20043;-72
2023/12/14 13:24:42;;;;;;;12.02;3.33;;;;;;;;;;5083044;28;20028;-72
2023/12/14 13:27:08;;;;;;;12.45;4.00;;;;;;;;;;5061012;28;20021;-73
2023/12/14 13:29:35;;;;;;;12.02;4.00;;;;;;;;;;5061448;28;20115;-72
2023/12/14 13:32:01;;;;;;;13.48;3.80;;;;;;;;;;5066510;28;20032;-71
2023/12/14 13:34:28;;;;;;;7.65;4.05;;;;;;;;;;5062435;28;20032;-71
2023/12/14 13:36:54;;;;;;;25.45;4.13;;;;;;;;;;5074589;28;20063;-71
2023/12/14 13:39:21;;;;;;;11.10;3.60;;;;;;;;;;5062340;28;20036;-72
2023/12/14 13:41:47;;;;;;;21.00;4.55;;;;;;;;;;5064344;28;20074;-72
2023/12/14 13:44:14;;;;;;;11.85;4.97;;;;;;;;;;5084077;28;20470;-72
2023/12/14 13:46:40;;;;;;;18.42;4.00;;;;;;;;;;5086741;28;20036;-70
2023/12/14 13:49:06;;;;;;;10.95;4.57;;;;;;;;;;5066199;28;20021;-71
2023/12/14 13:51:33;;;;;;;10.52;4.15;;;;;;;;;;5062077;28;20040;-71
2023/12/14 13:53:59;;;;;;;21.30;4.50;;;;;;;;;;5054486;28;20024;-71
2023/12/14 13:56:25;;;;;;;14.63;5.72;;;;;;;;;;5070830;28;20607;-71
2023/12/14 13:58:51;;;;;;;13.98;4.28;;;;;;;;;;5077181;28;20032;-71
2023/12/14 14:01:18;;;;;;;9.40;3.67;;;;;;;;;;5062356;28;20144;-71
2023/12/14 14:03:46;;;;;;;19.02;4.63;;;;;;;;;;5062174;28;20075;-73
2023/12/14 14:06:13;;;;;;;10.43;3.25;;;;;;;;;;5056220;28;20868;-71
2023/12/14 14:08:39;;;;;;;13.02;4.57;;;;;;;;;;5058155;28;20027;-73
2023/12/14 14:11:05;;;;;;;11.55;3.55;;;;;;;;;;5061856;28;20085;-73
2023/12/14 14:13:32;;;;;;;14.90;4.00;;;;;;;;;;5059574;28;20506;-73
2023/12/14 14:16:01;;;;;;;14.75;4.28;;;;;;;;;;5051872;28;20036;-71
2023/12/14 14:18:27;;;;;;;15.60;3.95;;;;;;;;;;5061671;28;20133;-72
2023/12/14 14:20:54;;;;;;;18.35;4.10;;;;;;;;;;5068274;28;20025;-71
2023/12/14 14:23:20;;;;;;;14.40;4.93;;;;;;;;;;5067313;28;20113;-71
2023/12/14 14:25:46;;;;;;;13.25;3.45;;;;;;;;;;5066049;28;20048;-73
2023/12/14 14:28:12;;;;;;;13.40;4.88;;;;;;;;;;5066821;28;20021;-71
2023/12/14 14:30:41;;;;;;;11.75;3.33;;;;;;;;;;5063604;28;20483;-73
2023/12/14 14:33:07;;;;;;;12.18;4.25;;;;;;;;;;5068539;28;20020;-72
2023/12/14 14:35:36;;;;;;;15.57;4.32;;;;;;;;;;5075171;28;20032;-72
2023/12/14 14:38:03;;;;;;;12.30;3.53;;;;;;;;;;5081802;28;20431;-74